createdAt,value
2017-08-04T00:01:04.799Z,23.10
2017-08-04T00:03:36.962Z,23.06
2017-08-04T00:06:09.770Z,23.02
2017-08-04T00:08:45.020Z,22.98
2017-08-04T00:11:18.327Z,23.10
2017-08-04T00:13:51.292Z,22.91
2017-08-04T00:16:23.513Z,22.91
2017-08-04T00:18:55.981Z,22.90
2017-08-04T00:21:28.113Z,22.96
2017-08-04T00:24:00.663Z,22.90
2017-08-04T00:26:33.335Z,22.92
2017-08-04T00:29:05.867Z,22.98
2017-08-04T00:31:38.332Z,22.87
2017-08-04T00:34:10.360Z,23.15
2017-08-04T00:36:45.502Z,23.23
2017-08-04T00:39:25.361Z,22.98
2017-08-04T00:41:59.122Z,23.23
2017-08-04T00:44:32.025Z,23.06
2017-08-04T00:47:04.553Z,23.43
2017-08-04T00:49:37.216Z,23.34
2017-08-04T00:52:09.111Z,23.31
2017-08-04T00:54:44.290Z,23.31
2017-08-04T00:57:16.299Z,23.30
2017-08-04T00:59:49.664Z,23.26
2017-08-04T01:02:23.500Z,23.33
2017-08-04T01:04:55.517Z,23.19
2017-08-04T01:07:27.977Z,23.33
2017-08-04T01:10:00.762Z,23.13
2017-08-04T01:12:33.819Z,23.14
2017-08-04T01:15:06.068Z,23.23
2017-08-04T01:17:38.793Z,23.18
2017-08-04T01:20:11.370Z,23.18
2017-08-04T01:22:46.179Z,23.35
2017-08-04T01:25:18.224Z,23.57
2017-08-04T01:27:50.645Z,23.44
2017-08-04T01:30:23.445Z,23.59
2017-08-04T01:32:55.838Z,23.64
2017-08-04T01:35:28.165Z,23.80
2017-08-04T01:38:00.779Z,23.75
2017-08-04T01:40:34.222Z,23.79
2017-08-04T01:43:06.795Z,23.79
2017-08-04T01:45:40.839Z,23.65
2017-08-04T01:48:16.491Z,23.41
2017-08-04T01:50:51.466Z,23.37
2017-08-04T01:53:24.633Z,23.57
2017-08-04T01:55:57.156Z,23.72
2017-08-04T01:58:29.470Z,23.80
2017-08-04T02:01:01.974Z,23.84
2017-08-04T02:03:34.884Z,23.63
2017-08-04T02:06:07.269Z,23.75
2017-08-04T02:08:39.624Z,23.67
2017-08-04T02:11:12.014Z,23.55
2017-08-04T02:13:47.956Z,23.56
2017-08-04T02:16:20.539Z,23.28
2017-08-04T02:18:53.512Z,23.18
2017-08-04T02:21:27.313Z,22.87
2017-08-04T02:24:03.063Z,22.66
2017-08-04T02:26:35.681Z,22.77
2017-08-04T02:29:08.244Z,22.83
2017-08-04T02:31:41.174Z,22.76
2017-08-04T02:34:16.995Z,22.58
2017-08-04T02:36:50.101Z,22.64
2017-08-04T02:39:22.411Z,22.68
2017-08-04T02:41:55.792Z,22.76
2017-08-04T02:44:27.808Z,22.64
2017-08-04T02:47:00.681Z,22.66
2017-08-04T02:49:33.694Z,22.61
2017-08-04T02:52:06.138Z,22.61
2017-08-04T02:54:38.464Z,22.64
2017-08-04T02:57:10.978Z,22.52
2017-08-04T02:59:45.168Z,22.42
2017-08-04T03:02:17.716Z,22.57
2017-08-04T03:04:50.471Z,22.37
2017-08-04T03:07:24.813Z,22.48
2017-08-04T03:09:56.727Z,22.53
2017-08-04T03:12:29.915Z,22.48
2017-08-04T03:15:02.605Z,22.42
2017-08-04T03:17:35.297Z,22.29
2017-08-04T03:20:07.888Z,22.27
2017-08-04T03:22:40.458Z,22.30
2017-08-04T03:25:13.575Z,22.18
2017-08-04T03:27:47.889Z,22.37
2017-08-04T03:30:20.696Z,22.19
2017-08-04T03:32:52.652Z,22.10
2017-08-04T03:35:25.080Z,22.14
2017-08-04T03:37:57.328Z,21.95
2017-08-04T03:40:30.271Z,22.06
2017-08-04T03:43:04.840Z,21.76
2017-08-04T03:45:37.858Z,21.76
2017-08-04T03:48:10.751Z,21.69
2017-08-04T03:50:45.253Z,21.71
2017-08-04T03:53:49.038Z,21.41
2017-08-04T03:56:21.231Z,21.58
2017-08-04T03:58:54.046Z,21.61
2017-08-04T04:01:26.438Z,21.54
2017-08-04T04:03:58.548Z,21.58
2017-08-04T04:06:30.538Z,21.53
2017-08-04T04:09:03.196Z,21.52
2017-08-04T04:11:37.085Z,21.54
2017-08-04T04:14:09.865Z,21.52
2017-08-04T04:16:48.715Z,21.48
2017-08-04T04:19:21.582Z,21.37
2017-08-04T04:21:54.216Z,21.44
2017-08-04T04:24:37.777Z,21.35
2017-08-04T04:27:23.801Z,21.49
2017-08-04T04:30:09.779Z,21.50
2017-08-04T04:33:12.430Z,21.48
2017-08-04T04:39:21.901Z,21.63
2017-08-04T04:42:27.612Z,21.74
2017-08-04T04:45:23.325Z,21.51
2017-08-04T04:48:24.253Z,21.63
2017-08-04T04:51:30.753Z,21.78
2017-08-04T04:54:17.004Z,21.84
2017-08-04T04:56:55.505Z,21.76
2017-08-04T04:59:33.700Z,21.59
2017-08-04T05:02:09.619Z,21.56
2017-08-04T05:04:52.803Z,21.61
2017-08-04T05:07:28.642Z,21.68
2017-08-04T05:10:09.545Z,21.67
2017-08-04T05:12:53.315Z,21.72
2017-08-04T05:15:31.603Z,21.76
2017-08-04T05:18:06.261Z,21.70
2017-08-04T05:20:39.360Z,21.82
2017-08-04T05:23:12.830Z,21.87
2017-08-04T05:25:48.268Z,21.93
2017-08-04T05:28:20.881Z,22.11
2017-08-04T05:30:54.396Z,22.54
2017-08-04T05:33:27.679Z,22.75
2017-08-04T05:36:00.645Z,22.78
2017-08-04T05:38:33.883Z,22.47
2017-08-04T05:41:07.152Z,23.05
2017-08-04T05:43:44.780Z,23.13
2017-08-04T05:46:17.695Z,23.21
2017-08-04T05:48:51.601Z,23.08
2017-08-04T05:51:25.215Z,23.38
2017-08-04T05:53:59.122Z,23.29
2017-08-04T05:56:32.214Z,23.52
2017-08-04T05:59:04.428Z,23.51
2017-08-04T06:01:36.613Z,23.49
2017-08-04T06:04:09.779Z,23.38
2017-08-04T06:06:42.639Z,23.60
2017-08-04T06:09:15.493Z,23.64
2017-08-04T06:11:51.580Z,23.21
2017-08-04T06:14:24.554Z,23.39
2017-08-04T06:18:00.803Z,23.77
2017-08-04T06:20:33.325Z,23.80
2017-08-04T06:23:07.698Z,23.87
2017-08-04T06:25:40.433Z,23.90
2017-08-04T06:28:13.268Z,23.81
2017-08-04T06:30:48.530Z,23.94
2017-08-04T06:33:22.102Z,23.18
2017-08-04T06:35:54.456Z,24.01
2017-08-04T06:38:26.853Z,23.83
2017-08-04T06:40:59.705Z,24.03
2017-08-04T06:44:12.642Z,23.99
2017-08-04T06:46:49.388Z,23.89
2017-08-04T06:49:32.893Z,24.12
2017-08-04T06:55:17.807Z,24.14
2017-08-04T06:57:51.837Z,23.92
2017-08-04T07:00:24.390Z,23.99
2017-08-04T07:02:56.965Z,24.20
2017-08-04T07:05:29.383Z,23.97
2017-08-04T07:08:02.481Z,24.19
2017-08-04T07:10:36.267Z,24.04
2017-08-04T07:13:09.733Z,24.21
2017-08-04T07:15:45.453Z,24.24
2017-08-04T07:18:17.934Z,24.24
2017-08-04T07:20:54.829Z,24.05
2017-08-04T07:23:28.497Z,24.34
2017-08-04T07:26:01.794Z,24.29
2017-08-04T07:28:33.951Z,24.38
2017-08-04T07:31:06.140Z,24.38
2017-08-04T07:33:38.200Z,24.43
2017-08-04T07:36:10.460Z,24.27
2017-08-04T07:38:49.204Z,24.50
2017-08-04T07:41:22.299Z,24.54
2017-08-04T07:43:55.860Z,24.50
2017-08-04T07:46:29.372Z,24.58
2017-08-04T07:49:02.497Z,24.56
2017-08-04T07:51:45.271Z,24.68
2017-08-04T07:54:18.389Z,24.65
2017-08-04T07:56:51.874Z,24.57
2017-08-04T07:59:24.296Z,24.65
2017-08-04T08:01:57.126Z,24.69
2017-08-04T08:04:31.372Z,24.74
2017-08-04T08:07:03.826Z,24.80
2017-08-04T08:09:36.334Z,24.80
2017-08-04T08:12:09.956Z,24.88
2017-08-04T08:14:44.712Z,25.00
2017-08-04T08:17:17.616Z,25.52
2017-08-04T08:19:50.647Z,25.69
2017-08-04T08:22:24.252Z,25.99
2017-08-04T08:24:57.184Z,26.19
2017-08-04T08:27:29.392Z,26.31
2017-08-04T08:30:02.192Z,25.81
2017-08-04T08:32:34.412Z,25.55
2017-08-04T08:35:06.928Z,25.30
2017-08-04T08:37:38.955Z,25.33
2017-08-04T08:40:11.134Z,25.36
2017-08-04T08:42:43.671Z,25.44
2017-08-04T08:45:15.977Z,25.36
2017-08-04T08:47:48.375Z,25.36
2017-08-04T08:50:23.567Z,25.19
2017-08-04T08:52:57.187Z,25.40
2017-08-04T08:55:32.446Z,25.50
2017-08-04T08:58:06.349Z,25.59
2017-08-04T09:00:38.919Z,25.59
2017-08-04T09:03:12.811Z,25.54
2017-08-04T09:05:46.714Z,25.39
2017-08-04T09:08:19.637Z,25.43
2017-08-04T09:10:52.589Z,25.48
2017-08-04T09:13:24.588Z,25.48
2017-08-04T09:15:57.606Z,25.49
2017-08-04T09:18:29.831Z,25.52
2017-08-04T09:21:02.121Z,25.47
2017-08-04T09:23:38.009Z,25.46
2017-08-04T09:26:10.342Z,25.47
2017-08-04T09:28:44.877Z,25.53
2017-08-04T09:31:20.814Z,25.36
2017-08-04T09:33:54.581Z,25.58
2017-08-04T09:36:26.639Z,25.53
2017-08-04T09:38:59.401Z,25.69
2017-08-04T09:41:32.049Z,25.76
2017-08-04T09:44:04.351Z,25.78
2017-08-04T09:46:36.798Z,25.93
2017-08-04T09:49:09.137Z,25.96
2017-08-04T09:51:43.613Z,26.04
2017-08-04T09:54:16.354Z,26.06
2017-08-04T09:56:50.228Z,26.02
2017-08-04T09:59:22.507Z,26.11
2017-08-04T10:01:54.652Z,26.26
2017-08-04T10:04:26.853Z,26.22
2017-08-04T10:06:59.360Z,26.35
2017-08-04T10:09:31.897Z,26.25
2017-08-04T10:12:04.201Z,26.23
2017-08-04T10:14:36.613Z,26.26
2017-08-04T10:17:09.394Z,26.24
2017-08-04T10:19:44.091Z,26.22
2017-08-04T10:22:17.331Z,26.18
2017-08-04T10:24:49.574Z,26.08
2017-08-04T10:27:23.166Z,26.28
2017-08-04T10:29:55.592Z,26.23
2017-08-04T10:32:27.665Z,26.25
2017-08-04T10:35:02.271Z,26.24
2017-08-04T10:37:35.020Z,26.14
2017-08-04T10:40:07.833Z,26.22
2017-08-04T10:42:40.027Z,26.39
2017-08-04T10:45:12.884Z,26.48
2017-08-04T10:47:47.157Z,26.46
2017-08-04T10:50:19.647Z,26.53
2017-08-04T10:52:51.513Z,26.55
2017-08-04T10:55:23.647Z,26.58
2017-08-04T10:57:55.925Z,26.49
2017-08-04T11:00:28.111Z,26.56
2017-08-04T11:03:00.424Z,26.63
2017-08-04T11:05:33.575Z,26.69
2017-08-04T11:08:05.945Z,26.70
2017-08-04T11:10:38.424Z,26.70
2017-08-04T11:13:10.691Z,26.75
2017-08-04T11:15:45.332Z,26.73
2017-08-04T11:18:18.521Z,26.78
2017-08-04T11:20:50.540Z,26.85
2017-08-04T11:23:22.969Z,26.82
2017-08-04T11:26:00.681Z,26.85
2017-08-04T11:28:33.834Z,26.90
2017-08-04T11:31:06.036Z,26.90
2017-08-04T11:33:38.186Z,26.87
2017-08-04T11:36:10.862Z,26.89
2017-08-04T11:38:45.146Z,26.79
2017-08-04T11:41:17.264Z,26.69
2017-08-04T11:43:51.051Z,26.66
2017-08-04T11:46:23.517Z,26.81
2017-08-04T11:48:56.054Z,26.73
2017-08-04T11:51:28.355Z,26.83
2017-08-04T11:54:00.543Z,26.87
2017-08-04T11:56:34.188Z,26.80
2017-08-04T11:59:06.917Z,26.92
2017-08-04T12:01:39.119Z,26.99
2017-08-04T12:04:11.861Z,26.91
2017-08-04T12:06:46.163Z,26.93
2017-08-04T12:09:19.437Z,26.93
2017-08-04T12:11:51.624Z,27.08
2017-08-04T12:14:25.003Z,26.80
2017-08-04T12:16:57.383Z,27.02
2017-08-04T12:19:29.508Z,27.02
2017-08-04T12:22:01.910Z,26.99
2017-08-04T12:24:34.020Z,27.07
2017-08-04T12:27:06.345Z,27.09
2017-08-04T12:29:41.421Z,27.10
2017-08-04T12:32:16.036Z,26.99
2017-08-04T12:34:48.424Z,27.06
2017-08-04T12:37:23.518Z,27.09
2017-08-04T12:39:59.765Z,27.14
2017-08-04T12:42:33.614Z,27.11
2017-08-04T12:45:12.220Z,27.08
2017-08-04T12:47:49.024Z,27.10
2017-08-04T12:50:21.453Z,27.20
2017-08-04T12:52:53.842Z,27.19
2017-08-04T12:55:35.550Z,27.13
2017-08-04T12:58:13.403Z,27.06
2017-08-04T13:00:49.694Z,26.85
2017-08-04T13:03:22.387Z,27.02
2017-08-04T13:05:55.439Z,26.97
2017-08-04T13:08:28.293Z,26.83
2017-08-04T13:11:00.617Z,26.84
2017-08-04T13:13:32.677Z,26.92
2017-08-04T13:16:04.628Z,26.89
2017-08-04T13:18:37.104Z,26.39
2017-08-04T13:21:09.989Z,26.70
2017-08-04T13:23:46.218Z,26.88
2017-08-04T13:26:19.464Z,26.99
2017-08-04T13:28:51.546Z,26.86
2017-08-04T13:31:24.001Z,26.94
2017-08-04T13:33:56.088Z,26.95
2017-08-04T13:36:28.485Z,26.88
2017-08-04T13:39:00.992Z,26.88
2017-08-04T13:41:34.047Z,26.91
2017-08-04T13:44:06.338Z,26.91
2017-08-04T13:46:38.405Z,26.97
2017-08-04T13:49:12.259Z,27.02
2017-08-04T13:51:47.575Z,27.00
2017-08-04T13:54:20.107Z,27.05
2017-08-04T13:56:58.622Z,27.01
2017-08-04T13:59:30.910Z,27.19
2017-08-04T14:02:03.093Z,27.10
2017-08-04T14:04:35.525Z,26.98
2017-08-04T14:07:07.702Z,27.23
2017-08-04T14:09:39.728Z,27.23
2017-08-04T14:12:17.852Z,27.26
2017-08-04T14:14:50.083Z,27.18
2017-08-04T14:17:22.742Z,27.24
2017-08-04T14:19:56.177Z,27.30
2017-08-04T14:22:29.185Z,27.16
2017-08-04T14:25:01.468Z,27.31
2017-08-04T14:27:33.757Z,27.18
2017-08-04T14:30:06.300Z,27.21
2017-08-04T14:32:39.530Z,27.18
2017-08-04T14:35:12.186Z,27.23
2017-08-04T14:37:46.854Z,27.14
2017-08-04T14:40:20.617Z,27.18
2017-08-04T14:42:53.551Z,27.26
2017-08-04T14:45:27.381Z,27.28
2017-08-04T14:48:00.054Z,27.28
2017-08-04T14:50:32.335Z,27.19
2017-08-04T14:53:04.484Z,27.26
2017-08-04T14:55:43.234Z,26.92
2017-08-04T14:58:18.561Z,26.94
2017-08-04T15:00:51.090Z,27.14
2017-08-04T15:03:23.638Z,27.07
2017-08-04T15:06:03.374Z,27.27
2017-08-04T15:08:35.627Z,27.26
2017-08-04T15:11:13.027Z,27.11
2017-08-04T15:14:07.814Z,26.93
2017-08-04T15:16:44.811Z,26.92
2017-08-04T15:19:20.345Z,26.93
2017-08-04T15:21:54.694Z,27.19
2017-08-04T15:24:27.260Z,27.11
2017-08-04T15:27:02.158Z,27.25
2017-08-04T15:29:34.840Z,27.18
2017-08-04T15:32:16.478Z,27.02
2017-08-04T15:34:59.208Z,26.85
2017-08-04T15:37:38.001Z,26.81
2017-08-04T15:40:16.340Z,27.02
2017-08-04T15:42:58.594Z,26.88
2017-08-04T15:45:31.730Z,27.04
2017-08-04T15:48:05.542Z,26.97
2017-08-04T15:50:38.993Z,26.84
2017-08-04T15:53:12.034Z,26.86
2017-08-04T15:55:46.327Z,27.09
2017-08-04T15:58:22.417Z,27.09
2017-08-04T16:01:00.562Z,26.79
2017-08-04T16:03:32.673Z,26.87
2017-08-04T16:06:05.283Z,26.94
2017-08-04T16:08:37.695Z,26.93
2017-08-04T16:11:09.910Z,26.78
2017-08-04T16:13:43.729Z,26.89
2017-08-04T16:16:16.060Z,26.89
2017-08-04T16:18:52.985Z,26.90
2017-08-04T16:21:29.842Z,26.87
2017-08-04T16:24:02.081Z,26.93
2017-08-04T16:26:34.055Z,26.98
2017-08-04T16:29:09.361Z,27.08
2017-08-04T16:31:45.414Z,27.00
2017-08-04T16:34:17.495Z,27.04
2017-08-04T16:36:50.783Z,26.68
2017-08-04T16:39:24.156Z,26.94
2017-08-04T16:41:58.288Z,26.88
2017-08-04T16:44:31.638Z,26.73
2017-08-04T16:47:04.298Z,26.71
2017-08-04T16:49:36.304Z,26.76
2017-08-04T16:52:08.707Z,26.77
2017-08-04T16:54:43.994Z,26.77
2017-08-04T16:57:16.399Z,26.78
2017-08-04T16:59:50.361Z,26.73
2017-08-04T17:02:25.956Z,26.75
2017-08-04T17:05:02.683Z,26.75
2017-08-04T17:07:42.795Z,26.70
2017-08-04T17:10:17.614Z,26.72
2017-08-04T17:12:50.611Z,26.54
2017-08-04T17:15:24.974Z,26.48
2017-08-04T17:18:22.681Z,26.73
2017-08-04T17:20:55.053Z,26.70
2017-08-04T17:23:27.300Z,26.72
2017-08-04T17:25:59.791Z,26.69
2017-08-04T17:28:32.477Z,26.68
2017-08-04T17:31:06.364Z,26.68
2017-08-04T17:33:39.765Z,26.68
2017-08-04T17:36:13.712Z,26.64
2017-08-04T17:38:49.282Z,26.60
2017-08-04T17:41:22.940Z,26.55
2017-08-04T17:43:57.184Z,26.17
2017-08-04T17:46:53.583Z,26.50
2017-08-04T17:49:30.031Z,26.39
2017-08-04T17:52:15.015Z,26.45
2017-08-04T17:54:50.175Z,26.33
2017-08-04T17:57:23.225Z,26.39
2017-08-04T17:59:55.517Z,26.40
2017-08-04T18:02:44.294Z,25.94
2017-08-04T18:05:20.089Z,26.33
2017-08-04T18:07:52.708Z,26.31
2017-08-04T18:10:27.813Z,26.38
2017-08-04T18:13:01.603Z,26.35
2017-08-04T18:15:34.072Z,26.39
2017-08-04T18:18:07.568Z,26.38
2017-08-04T18:20:44.031Z,26.15
2017-08-04T18:23:26.558Z,25.99
2017-08-04T18:26:29.117Z,26.17
2017-08-04T18:29:17.380Z,25.91
2017-08-04T18:34:45.116Z,26.17
2017-08-04T18:37:29.949Z,26.15
2017-08-04T18:40:02.172Z,26.23
2017-08-04T18:43:07.900Z,25.90
2017-08-04T18:45:52.838Z,25.85
2017-08-04T18:48:39.740Z,26.07
2017-08-04T18:51:37.987Z,26.10
2017-08-04T18:54:26.454Z,25.87
2017-08-04T18:57:49.931Z,25.89
2017-08-04T19:00:29.832Z,25.99
2017-08-04T19:03:08.712Z,25.86
2017-08-04T19:05:42.842Z,25.60
2017-08-04T19:08:24.024Z,25.54
2017-08-04T19:11:03.537Z,25.77
2017-08-04T19:13:38.418Z,25.87
2017-08-04T19:16:19.348Z,25.80
2017-08-04T19:19:01.431Z,25.61
2017-08-04T19:21:39.549Z,25.71
2017-08-04T19:24:14.719Z,25.74
2017-08-04T19:26:49.269Z,25.69
2017-08-04T19:29:23.861Z,25.68
2017-08-04T19:31:56.363Z,25.61
2017-08-04T19:34:28.326Z,25.62
2017-08-04T19:37:02.320Z,25.53
2017-08-04T19:39:34.760Z,25.53
2017-08-04T19:42:06.927Z,25.61
2017-08-04T19:44:38.835Z,25.63
2017-08-04T19:47:13.974Z,25.69
2017-08-04T19:49:46.507Z,25.43
2017-08-04T19:52:19.929Z,25.38
2017-08-04T19:54:52.244Z,25.52
2017-08-04T19:57:25.610Z,25.41
2017-08-04T19:59:57.832Z,25.35
2017-08-04T20:02:32.950Z,25.31
2017-08-04T20:05:06.910Z,25.16
2017-08-04T20:07:41.069Z,25.06
2017-08-04T20:10:18.275Z,25.11
2017-08-04T20:12:52.169Z,25.06
2017-08-04T20:15:24.962Z,24.91
2017-08-04T20:17:57.335Z,24.92
2017-08-04T20:20:30.010Z,25.09
2017-08-04T20:23:02.434Z,25.20
2017-08-04T20:25:35.730Z,25.26
2017-08-04T20:28:08.624Z,25.23
2017-08-04T20:30:40.560Z,25.31
2017-08-04T20:33:16.189Z,25.30
2017-08-04T20:35:49.128Z,25.42
2017-08-04T20:38:21.984Z,25.34
2017-08-04T20:40:54.655Z,25.37
2017-08-04T20:43:26.624Z,25.36
2017-08-04T20:45:58.722Z,25.34
2017-08-04T20:48:31.027Z,25.23
2017-08-04T20:51:03.190Z,25.11
2017-08-04T20:53:35.809Z,25.11
2017-08-04T20:56:07.822Z,25.15
2017-08-04T20:58:39.889Z,25.17
2017-08-04T21:01:21.072Z,24.86
2017-08-04T21:03:56.861Z,24.94
2017-08-04T21:09:36.733Z,25.19
2017-08-04T21:12:10.495Z,25.19
2017-08-04T21:14:45.066Z,25.11
2017-08-04T21:17:20.934Z,24.87
2017-08-04T21:19:53.064Z,25.11
2017-08-04T21:22:25.221Z,25.03
2017-08-04T21:25:07.661Z,25.13
2017-08-04T21:27:39.809Z,25.10
2017-08-04T21:30:14.200Z,25.02
2017-08-04T21:32:46.545Z,25.08
2017-08-04T21:35:20.665Z,24.95
2017-08-04T21:37:53.019Z,25.09
2017-08-04T21:40:25.483Z,25.12
2017-08-04T21:42:57.479Z,25.02
2017-08-04T21:45:29.642Z,25.06
2017-08-04T21:48:01.724Z,24.93
2017-08-04T21:50:33.859Z,25.11
2017-08-04T21:53:08.946Z,25.01
2017-08-04T21:55:42.666Z,24.75
2017-08-04T21:58:18.120Z,25.01
2017-08-04T22:00:50.296Z,25.09
2017-08-04T22:03:23.560Z,25.08
2017-08-04T22:05:57.358Z,25.00
2017-08-04T22:08:33.188Z,25.03
2017-08-04T22:11:05.598Z,25.16
2017-08-04T22:13:38.026Z,25.15
2017-08-04T22:16:10.224Z,25.16
2017-08-04T22:18:46.264Z,25.18
2017-08-04T22:21:19.576Z,25.26
2017-08-04T22:23:51.851Z,25.28
2017-08-04T22:26:24.047Z,25.21
2017-08-04T22:28:57.066Z,25.21
2017-08-04T22:31:29.182Z,25.32
2017-08-04T22:34:02.261Z,25.18
2017-08-04T22:36:35.161Z,25.22
2017-08-04T22:39:07.554Z,25.30
2017-08-04T22:41:39.838Z,25.18
2017-08-04T22:44:14.501Z,25.25
2017-08-04T22:46:46.977Z,25.14
2017-08-04T22:49:20.045Z,25.05
2017-08-04T22:51:52.712Z,25.20
2017-08-04T22:54:25.493Z,25.20
2017-08-04T22:56:57.751Z,25.14
2017-08-04T22:59:30.401Z,25.18
2017-08-04T23:02:02.682Z,25.11
2017-08-04T23:04:34.907Z,25.13
2017-08-04T23:07:07.306Z,25.17
2017-08-04T23:09:39.190Z,25.21
2017-08-04T23:12:13.404Z,25.15
2017-08-04T23:14:45.547Z,25.13
2017-08-04T23:17:19.518Z,24.84
2017-08-04T23:19:51.836Z,25.11
2017-08-04T23:22:32.882Z,25.09
2017-08-04T23:25:06.233Z,25.17
2017-08-04T23:27:38.720Z,25.13
2017-08-04T23:30:15.177Z,25.11
2017-08-04T23:32:48.148Z,24.63
2017-08-04T23:35:20.644Z,25.09
2017-08-04T23:37:52.642Z,25.05
2017-08-04T23:40:24.629Z,24.98
2017-08-04T23:42:56.766Z,24.98
2017-08-04T23:45:28.899Z,24.95
2017-08-04T23:48:01.435Z,24.97
2017-08-04T23:50:33.681Z,24.75
2017-08-04T23:53:06.378Z,24.91
2017-08-04T23:55:41.994Z,24.87
2017-08-04T23:58:16.618Z,24.79
